sensor_id;sensor_type;location;lat;lon;timestamp;P1;durP1;ratioP1;P2;durP2;ratioP2
67516;SDS011;68821;59.134;37.894;2023-10-13T00:01:47;4.85;;;0.90;;
67516;SDS011;68821;59.134;37.894;2023-10-13T00:04:14;4.32;;;1.05;;
67516;SDS011;68821;59.134;37.894;2023-10-13T00:06:40;3.42;;;0.55;;
67516;SDS011;68821;59.134;37.894;2023-10-13T00:09:08;2.92;;;0.73;;
67516;SDS011;68821;59.134;37.894;2023-10-13T00:11:42;3.67;;;0.50;;
67516;SDS011;68821;59.134;37.894;2023-10-13T00:14:13;3.95;;;0.75;;
67516;SDS011;68821;59.134;37.894;2023-10-13T00:16:42;6.32;;;1.48;;
67516;SDS011;68821;59.134;37.894;2023-10-13T00:19:31;1.65;;;0.50;;
67516;SDS011;68821;59.134;37.894;2023-10-13T00:22:11;1.13;;;0.40;;
67516;SDS011;68821;59.134;37.894;2023-10-13T00:24:41;3.50;;;0.73;;
67516;SDS011;68821;59.134;37.894;2023-10-13T00:27:12;2.88;;;0.80;;
67516;SDS011;68821;59.134;37.894;2023-10-13T00:32:41;1.98;;;0.50;;
67516;SDS011;68821;59.134;37.894;2023-10-13T00:37:39;1.95;;;0.40;;
67516;SDS011;68821;59.134;37.894;2023-10-13T00:40:10;3.70;;;0.80;;
67516;SDS011;68821;59.134;37.894;2023-10-13T00:42:59;3.75;;;0.93;;
67516;SDS011;68821;59.134;37.894;2023-10-13T00:48:37;4.07;;;0.68;;
67516;SDS011;68821;59.134;37.894;2023-10-13T00:51:11;1.67;;;0.50;;
67516;SDS011;68821;59.134;37.894;2023-10-13T00:54:01;3.72;;;0.60;;
67516;SDS011;68821;59.134;37.894;2023-10-13T00:56:33;2.90;;;0.60;;
67516;SDS011;68821;59.134;37.894;2023-10-13T00:58:59;1.00;;;0.40;;
67516;SDS011;68821;59.134;37.894;2023-10-13T01:01:30;5.50;;;0.77;;
67516;SDS011;68821;59.134;37.894;2023-10-13T01:03:58;5.32;;;1.05;;
67516;SDS011;68821;59.134;37.894;2023-10-13T01:06:25;5.30;;;1.10;;
67516;SDS011;68821;59.134;37.894;2023-10-13T01:09:02;2.65;;;0.63;;
67516;SDS011;68821;59.134;37.894;2023-10-13T01:11:45;1.08;;;0.38;;
67516;SDS011;68821;59.134;37.894;2023-10-13T01:14:14;2.70;;;0.52;;
67516;SDS011;68821;59.134;37.894;2023-10-13T01:16:44;3.00;;;0.88;;
67516;SDS011;68821;59.134;37.894;2023-10-13T01:19:15;2.80;;;0.40;;
67516;SDS011;68821;59.134;37.894;2023-10-13T01:21:50;1.67;;;0.52;;
67516;SDS011;68821;59.134;37.894;2023-10-13T01:24:27;4.05;;;0.95;;
67516;SDS011;68821;59.134;37.894;2023-10-13T01:27:00;1.40;;;0.40;;
67516;SDS011;68821;59.134;37.894;2023-10-13T01:29:36;4.57;;;0.90;;
67516;SDS011;68821;59.134;37.894;2023-10-13T01:32:02;4.57;;;1.42;;
67516;SDS011;68821;59.134;37.894;2023-10-13T01:34:28;5.25;;;1.02;;
67516;SDS011;68821;59.134;37.894;2023-10-13T01:36:58;2.33;;;0.40;;
67516;SDS011;68821;59.134;37.894;2023-10-13T01:39:31;4.43;;;1.23;;
67516;SDS011;68821;59.134;37.894;2023-10-13T01:41:57;4.00;;;0.65;;
67516;SDS011;68821;59.134;37.894;2023-10-13T01:44:23;8.32;;;1.20;;
67516;SDS011;68821;59.134;37.894;2023-10-13T01:46:53;11.25;;;1.48;;
67516;SDS011;68821;59.134;37.894;2023-10-13T01:49:19;4.13;;;1.15;;
67516;SDS011;68821;59.134;37.894;2023-10-13T01:51:48;4.45;;;0.68;;
67516;SDS011;68821;59.134;37.894;2023-10-13T01:54:14;5.60;;;0.75;;
67516;SDS011;68821;59.134;37.894;2023-10-13T01:56:41;1.25;;;0.55;;
67516;SDS011;68821;59.134;37.894;2023-10-13T01:59:12;1.65;;;0.40;;
67516;SDS011;68821;59.134;37.894;2023-10-13T02:01:39;1.27;;;0.32;;
67516;SDS011;68821;59.134;37.894;2023-10-13T02:04:07;1.08;;;0.32;;
67516;SDS011;68821;59.134;37.894;2023-10-13T02:06:36;1.23;;;0.30;;
67516;SDS011;68821;59.134;37.894;2023-10-13T02:09:06;3.15;;;0.30;;
67516;SDS011;68821;59.134;37.894;2023-10-13T02:11:38;0.93;;;0.35;;
67516;SDS011;68821;59.134;37.894;2023-10-13T02:14:05;2.58;;;0.50;;
67516;SDS011;68821;59.134;37.894;2023-10-13T02:16:31;2.17;;;0.60;;
67516;SDS011;68821;59.134;37.894;2023-10-13T02:18:58;3.58;;;0.88;;
67516;SDS011;68821;59.134;37.894;2023-10-13T02:21:30;3.10;;;0.68;;
67516;SDS011;68821;59.134;37.894;2023-10-13T02:24:07;0.82;;;0.28;;
67516;SDS011;68821;59.134;37.894;2023-10-13T02:26:44;2.58;;;0.45;;
67516;SDS011;68821;59.134;37.894;2023-10-13T02:29:10;2.13;;;0.45;;
67516;SDS011;68821;59.134;37.894;2023-10-13T02:31:39;2.17;;;0.40;;
67516;SDS011;68821;59.134;37.894;2023-10-13T02:34:06;2.03;;;0.32;;
67516;SDS011;68821;59.134;37.894;2023-10-13T02:36:39;3.45;;;0.75;;
67516;SDS011;68821;59.134;37.894;2023-10-13T02:39:18;1.63;;;0.45;;
67516;SDS011;68821;59.134;37.894;2023-10-13T02:41:53;2.25;;;0.52;;
67516;SDS011;68821;59.134;37.894;2023-10-13T02:44:21;1.15;;;0.38;;
67516;SDS011;68821;59.134;37.894;2023-10-13T02:46:54;0.65;;;0.30;;
67516;SDS011;68821;59.134;37.894;2023-10-13T02:49:25;1.40;;;0.50;;
67516;SDS011;68821;59.134;37.894;2023-10-13T02:51:55;1.73;;;0.60;;
67516;SDS011;68821;59.134;37.894;2023-10-13T02:54:21;1.77;;;0.70;;
67516;SDS011;68821;59.134;37.894;2023-10-13T02:56:47;1.08;;;0.52;;
67516;SDS011;68821;59.134;37.894;2023-10-13T02:59:26;2.83;;;0.70;;
67516;SDS011;68821;59.134;37.894;2023-10-13T03:02:11;1.17;;;0.40;;
67516;SDS011;68821;59.134;37.894;2023-10-13T03:04:49;2.72;;;0.82;;
67516;SDS011;68821;59.134;37.894;2023-10-13T03:07:16;3.47;;;0.70;;
67516;SDS011;68821;59.134;37.894;2023-10-13T03:09:48;2.13;;;0.98;;
67516;SDS011;68821;59.134;37.894;2023-10-13T03:12:16;4.63;;;0.75;;
67516;SDS011;68821;59.134;37.894;2023-10-13T03:14:43;2.08;;;0.85;;
67516;SDS011;68821;59.134;37.894;2023-10-13T03:17:15;2.90;;;0.70;;
67516;SDS011;68821;59.134;37.894;2023-10-13T03:22:11;2.10;;;0.60;;
67516;SDS011;68821;59.134;37.894;2023-10-13T03:24:41;5.10;;;1.02;;
67516;SDS011;68821;59.134;37.894;2023-10-13T03:27:14;4.13;;;0.70;;
67516;SDS011;68821;59.134;37.894;2023-10-13T03:29:48;2.45;;;0.80;;
67516;SDS011;68821;59.134;37.894;2023-10-13T03:32:19;3.45;;;0.60;;
67516;SDS011;68821;59.134;37.894;2023-10-13T03:34:46;3.33;;;1.48;;
67516;SDS011;68821;59.134;37.894;2023-10-13T03:37:39;2.63;;;0.80;;
67516;SDS011;68821;59.134;37.894;2023-10-13T03:40:12;3.05;;;0.73;;
67516;SDS011;68821;59.134;37.894;2023-10-13T03:42:48;3.90;;;1.05;;
67516;SDS011;68821;59.134;37.894;2023-10-13T03:45:33;1.45;;;0.50;;
67516;SDS011;68821;59.134;37.894;2023-10-13T03:48:03;2.35;;;0.60;;
67516;SDS011;68821;59.134;37.894;2023-10-13T03:50:40;2.05;;;0.50;;
67516;SDS011;68821;59.134;37.894;2023-10-13T03:53:27;3.88;;;1.00;;
67516;SDS011;68821;59.134;37.894;2023-10-13T03:56:04;3.33;;;0.60;;
67516;SDS011;68821;59.134;37.894;2023-10-13T03:58:38;1.70;;;0.63;;
67516;SDS011;68821;59.134;37.894;2023-10-13T04:01:08;1.27;;;0.32;;
67516;SDS011;68821;59.134;37.894;2023-10-13T04:03:40;2.00;;;0.63;;
67516;SDS011;68821;59.134;37.894;2023-10-13T04:06:23;2.90;;;0.47;;
67516;SDS011;68821;59.134;37.894;2023-10-13T04:09:12;1.65;;;0.60;;
67516;SDS011;68821;59.134;37.894;2023-10-13T04:11:55;2.22;;;0.80;;
67516;SDS011;68821;59.134;37.894;2023-10-13T04:14:33;2.30;;;0.77;;
67516;SDS011;68821;59.134;37.894;2023-10-13T04:17:20;4.57;;;0.93;;
67516;SDS011;68821;59.134;37.894;2023-10-13T04:19:50;3.50;;;0.82;;
67516;SDS011;68821;59.134;37.894;2023-10-13T04:25:13;4.55;;;1.45;;
67516;SDS011;68821;59.134;37.894;2023-10-13T04:28:05;11.48;;;1.75;;
67516;SDS011;68821;59.134;37.894;2023-10-13T04:30:50;5.03;;;0.80;;
67516;SDS011;68821;59.134;37.894;2023-10-13T04:36:10;14.02;;;2.33;;
67516;SDS011;68821;59.134;37.894;2023-10-13T04:44:05;6.03;;;0.98;;
67516;SDS011;68821;59.134;37.894;2023-10-13T04:46:50;2.53;;;1.05;;
67516;SDS011;68821;59.134;37.894;2023-10-13T04:49:19;8.48;;;1.55;;
67516;SDS011;68821;59.134;37.894;2023-10-13T04:51:55;10.38;;;1.20;;
67516;SDS011;68821;59.134;37.894;2023-10-13T04:54:25;6.13;;;1.30;;
67516;SDS011;68821;59.134;37.894;2023-10-13T04:56:52;6.63;;;1.95;;
67516;SDS011;68821;59.134;37.894;2023-10-13T04:59:44;8.32;;;1.40;;
67516;SDS011;68821;59.134;37.894;2023-10-13T05:02:29;11.63;;;1.38;;
67516;SDS011;68821;59.134;37.894;2023-10-13T05:05:02;5.78;;;1.30;;
67516;SDS011;68821;59.134;37.894;2023-10-13T05:07:44;1.70;;;0.60;;
67516;SDS011;68821;59.134;37.894;2023-10-13T05:10:29;6.32;;;1.38;;
67516;SDS011;68821;59.134;37.894;2023-10-13T05:13:15;2.80;;;1.00;;
67516;SDS011;68821;59.134;37.894;2023-10-13T05:15:59;3.90;;;0.80;;
67516;SDS011;68821;59.134;37.894;2023-10-13T05:18:44;8.82;;;1.20;;
67516;SDS011;68821;59.134;37.894;2023-10-13T05:21:29;3.28;;;1.10;;
67516;SDS011;68821;59.134;37.894;2023-10-13T05:24:14;9.65;;;1.50;;
67516;SDS011;68821;59.134;37.894;2023-10-13T05:26:58;6.53;;;1.25;;
67516;SDS011;68821;59.134;37.894;2023-10-13T05:29:43;7.40;;;1.27;;
67516;SDS011;68821;59.134;37.894;2023-10-13T05:32:29;7.05;;;1.20;;
67516;SDS011;68821;59.134;37.894;2023-10-13T05:35:15;11.05;;;1.33;;
67516;SDS011;68821;59.134;37.894;2023-10-13T05:38:00;7.93;;;1.25;;
67516;SDS011;68821;59.134;37.894;2023-10-13T05:40:51;6.53;;;1.20;;
67516;SDS011;68821;59.134;37.894;2023-10-13T05:43:46;5.15;;;1.38;;
67516;SDS011;68821;59.134;37.894;2023-10-13T05:46:31;2.58;;;0.85;;
67516;SDS011;68821;59.134;37.894;2023-10-13T05:49:07;4.75;;;0.93;;
67516;SDS011;68821;59.134;37.894;2023-10-13T05:51:34;8.23;;;1.00;;
67516;SDS011;68821;59.134;37.894;2023-10-13T05:54:09;5.82;;;1.08;;
67516;SDS011;68821;59.134;37.894;2023-10-13T05:56:45;5.57;;;1.30;;
67516;SDS011;68821;59.134;37.894;2023-10-13T05:59:32;11.88;;;1.30;;
67516;SDS011;68821;59.134;37.894;2023-10-13T06:02:19;8.57;;;0.85;;
67516;SDS011;68821;59.134;37.894;2023-10-13T06:05:05;10.68;;;1.80;;
67516;SDS011;68821;59.134;37.894;2023-10-13T06:07:51;1.95;;;0.85;;
67516;SDS011;68821;59.134;37.894;2023-10-13T06:10:35;4.97;;;1.60;;
67516;SDS011;68821;59.134;37.894;2023-10-13T06:13:20;4.53;;;1.00;;
67516;SDS011;68821;59.134;37.894;2023-10-13T06:16:05;8.38;;;1.40;;
67516;SDS011;68821;59.134;37.894;2023-10-13T06:18:50;6.97;;;1.70;;
67516;SDS011;68821;59.134;37.894;2023-10-13T06:21:35;6.13;;;1.25;;
67516;SDS011;68821;59.134;37.894;2023-10-13T06:24:19;8.27;;;1.67;;
67516;SDS011;68821;59.134;37.894;2023-10-13T06:27:03;5.30;;;1.33;;
67516;SDS011;68821;59.134;37.894;2023-10-13T06:29:48;7.22;;;1.00;;
67516;SDS011;68821;59.134;37.894;2023-10-13T06:32:14;2.67;;;0.73;;
67516;SDS011;68821;59.134;37.894;2023-10-13T06:34:42;8.88;;;1.52;;
67516;SDS011;68821;59.134;37.894;2023-10-13T06:37:11;8.30;;;1.88;;
67516;SDS011;68821;59.134;37.894;2023-10-13T06:39:57;8.18;;;2.17;;
67516;SDS011;68821;59.134;37.894;2023-10-13T06:42:39;8.93;;;2.42;;
67516;SDS011;68821;59.134;37.894;2023-10-13T06:45:09;45.63;;;16.75;;
67516;SDS011;68821;59.134;37.894;2023-10-13T06:47:35;47.30;;;14.20;;
67516;SDS011;68821;59.134;37.894;2023-10-13T06:50:08;29.25;;;8.95;;
67516;SDS011;68821;59.134;37.894;2023-10-13T06:52:44;18.55;;;7.15;;
67516;SDS011;68821;59.134;37.894;2023-10-13T06:55:12;22.08;;;5.82;;
67516;SDS011;68821;59.134;37.894;2023-10-13T06:57:49;26.15;;;8.52;;
67516;SDS011;68821;59.134;37.894;2023-10-13T07:00:17;51.97;;;13.55;;
67516;SDS011;68821;59.134;37.894;2023-10-13T07:02:53;30.85;;;7.80;;
67516;SDS011;68821;59.134;37.894;2023-10-13T07:05:19;28.40;;;9.30;;
67516;SDS011;68821;59.134;37.894;2023-10-13T07:07:45;26.65;;;10.20;;
67516;SDS011;68821;59.134;37.894;2023-10-13T07:12:39;34.47;;;17.30;;
67516;SDS011;68821;59.134;37.894;2023-10-13T07:15:15;25.35;;;8.98;;
67516;SDS011;68821;59.134;37.894;2023-10-13T07:17:43;15.75;;;6.60;;
67516;SDS011;68821;59.134;37.894;2023-10-13T07:20:11;22.27;;;7.85;;
67516;SDS011;68821;59.134;37.894;2023-10-13T07:22:41;28.58;;;10.98;;
67516;SDS011;68821;59.134;37.894;2023-10-13T07:25:11;19.92;;;7.93;;
67516;SDS011;68821;59.134;37.894;2023-10-13T07:27:49;8.48;;;2.80;;
67516;SDS011;68821;59.134;37.894;2023-10-13T07:30:15;11.13;;;2.72;;
67516;SDS011;68821;59.134;37.894;2023-10-13T07:32:45;14.77;;;2.92;;
67516;SDS011;68821;59.134;37.894;2023-10-13T07:35:12;5.25;;;1.85;;
67516;SDS011;68821;59.134;37.894;2023-10-13T07:37:41;4.68;;;2.05;;
67516;SDS011;68821;59.134;37.894;2023-10-13T07:40:08;16.17;;;4.30;;
67516;SDS011;68821;59.134;37.894;2023-10-13T07:42:54;14.95;;;3.38;;
67516;SDS011;68821;59.134;37.894;2023-10-13T07:45:35;14.73;;;3.15;;
67516;SDS011;68821;59.134;37.894;2023-10-13T07:48:03;5.43;;;1.85;;
67516;SDS011;68821;59.134;37.894;2023-10-13T07:50:39;9.27;;;1.73;;
67516;SDS011;68821;59.134;37.894;2023-10-13T07:53:05;9.90;;;1.60;;
67516;SDS011;68821;59.134;37.894;2023-10-13T07:55:45;9.93;;;2.10;;
67516;SDS011;68821;59.134;37.894;2023-10-13T07:58:12;4.07;;;1.13;;
67516;SDS011;68821;59.134;37.894;2023-10-13T08:00:39;11.30;;;0.98;;
67516;SDS011;68821;59.134;37.894;2023-10-13T08:03:14;15.20;;;1.42;;
67516;SDS011;68821;59.134;37.894;2023-10-13T08:05:41;11.65;;;1.40;;
67516;SDS011;68821;59.134;37.894;2023-10-13T08:08:26;4.32;;;0.70;;
67516;SDS011;68821;59.134;37.894;2023-10-13T08:11:04;11.00;;;2.05;;
67516;SDS011;68821;59.134;37.894;2023-10-13T08:13:43;12.20;;;1.55;;
67516;SDS011;68821;59.134;37.894;2023-10-13T08:16:15;5.40;;;1.15;;
67516;SDS011;68821;59.134;37.894;2023-10-13T08:18:51;7.03;;;1.00;;
67516;SDS011;68821;59.134;37.894;2023-10-13T08:21:18;6.13;;;1.58;;
67516;SDS011;68821;59.134;37.894;2023-10-13T08:23:57;4.97;;;1.13;;
67516;SDS011;68821;59.134;37.894;2023-10-13T08:26:27;8.98;;;2.25;;
67516;SDS011;68821;59.134;37.894;2023-10-13T08:29:03;4.07;;;0.73;;
67516;SDS011;68821;59.134;37.894;2023-10-13T08:31:47;8.85;;;1.10;;
67516;SDS011;68821;59.134;37.894;2023-10-13T08:34:32;1.30;;;0.60;;
67516;SDS011;68821;59.134;37.894;2023-10-13T08:37:08;10.15;;;1.15;;
67516;SDS011;68821;59.134;37.894;2023-10-13T08:39:49;7.68;;;1.20;;
67516;SDS011;68821;59.134;37.894;2023-10-13T08:42:29;6.20;;;0.90;;
67516;SDS011;68821;59.134;37.894;2023-10-13T08:45:11;6.60;;;1.10;;
67516;SDS011;68821;59.134;37.894;2023-10-13T08:47:50;3.70;;;0.75;;
67516;SDS011;68821;59.134;37.894;2023-10-13T08:50:20;3.90;;;0.98;;
67516;SDS011;68821;59.134;37.894;2023-10-13T08:53:06;4.70;;;1.23;;
67516;SDS011;68821;59.134;37.894;2023-10-13T08:58:32;7.45;;;1.45;;
67516;SDS011;68821;59.134;37.894;2023-10-13T09:01:28;5.65;;;1.55;;
67516;SDS011;68821;59.134;37.894;2023-10-13T09:04:05;8.30;;;1.63;;
67516;SDS011;68821;59.134;37.894;2023-10-13T09:12:21;4.32;;;1.10;;
67516;SDS011;68821;59.134;37.894;2023-10-13T09:15:05;6.68;;;1.05;;
67516;SDS011;68821;59.134;37.894;2023-10-13T09:17:47;5.72;;;1.17;;
67516;SDS011;68821;59.134;37.894;2023-10-13T09:20:29;6.97;;;1.17;;
67516;SDS011;68821;59.134;37.894;2023-10-13T09:23:09;8.20;;;1.48;;
67516;SDS011;68821;59.134;37.894;2023-10-13T09:25:38;5.30;;;1.48;;
67516;SDS011;68821;59.134;37.894;2023-10-13T09:28:19;2.63;;;0.65;;
67516;SDS011;68821;59.134;37.894;2023-10-13T09:30:48;7.57;;;1.45;;
67516;SDS011;68821;59.134;37.894;2023-10-13T09:33:21;4.03;;;0.90;;
67516;SDS011;68821;59.134;37.894;2023-10-13T09:35:58;10.15;;;2.15;;
67516;SDS011;68821;59.134;37.894;2023-10-13T09:38:26;5.68;;;1.35;;
67516;SDS011;68821;59.134;37.894;2023-10-13T09:40:53;10.73;;;1.63;;
67516;SDS011;68821;59.134;37.894;2023-10-13T09:43:23;14.85;;;1.60;;
67516;SDS011;68821;59.134;37.894;2023-10-13T09:45:50;6.60;;;1.52;;
67516;SDS011;68821;59.134;37.894;2023-10-13T09:51:03;11.27;;;1.75;;
67516;SDS011;68821;59.134;37.894;2023-10-13T09:53:32;5.07;;;1.55;;
67516;SDS011;68821;59.134;37.894;2023-10-13T09:56:03;3.03;;;1.20;;
67516;SDS011;68821;59.134;37.894;2023-10-13T09:58:58;6.97;;;1.23;;
67516;SDS011;68821;59.134;37.894;2023-10-13T10:04:16;8.18;;;1.75;;
67516;SDS011;68821;59.134;37.894;2023-10-13T10:09:19;8.00;;;1.63;;
67516;SDS011;68821;59.134;37.894;2023-10-13T10:17:21;6.85;;;1.92;;
67516;SDS011;68821;59.134;37.894;2023-10-13T10:19:51;8.65;;;2.20;;
67516;SDS011;68821;59.134;37.894;2023-10-13T10:22:31;8.00;;;2.15;;
67516;SDS011;68821;59.134;37.894;2023-10-13T10:25:02;11.32;;;2.55;;
67516;SDS011;68821;59.134;37.894;2023-10-13T10:27:32;9.68;;;2.17;;
67516;SDS011;68821;59.134;37.894;2023-10-13T10:29:59;13.20;;;2.60;;
67516;SDS011;68821;59.134;37.894;2023-10-13T10:32:38;8.85;;;2.28;;
67516;SDS011;68821;59.134;37.894;2023-10-13T10:35:14;9.52;;;3.10;;
67516;SDS011;68821;59.134;37.894;2023-10-13T10:37:43;15.98;;;3.78;;
67516;SDS011;68821;59.134;37.894;2023-10-13T10:40:14;16.05;;;2.83;;
67516;SDS011;68821;59.134;37.894;2023-10-13T10:43:12;16.55;;;4.18;;
67516;SDS011;68821;59.134;37.894;2023-10-13T10:45:46;19.58;;;4.47;;
67516;SDS011;68821;59.134;37.894;2023-10-13T10:50:55;5.85;;;1.63;;
67516;SDS011;68821;59.134;37.894;2023-10-13T10:53:21;5.80;;;1.48;;
67516;SDS011;68821;59.134;37.894;2023-10-13T10:55:48;7.57;;;1.90;;
67516;SDS011;68821;59.134;37.894;2023-10-13T10:58:14;11.80;;;2.28;;
67516;SDS011;68821;59.134;37.894;2023-10-13T11:01:08;15.68;;;3.25;;
67516;SDS011;68821;59.134;37.894;2023-10-13T11:03:36;12.93;;;3.05;;
67516;SDS011;68821;59.134;37.894;2023-10-13T11:06:04;8.88;;;3.03;;
67516;SDS011;68821;59.134;37.894;2023-10-13T11:08:35;5.72;;;1.60;;
67516;SDS011;68821;59.134;37.894;2023-10-13T11:11:03;5.35;;;1.38;;
67516;SDS011;68821;59.134;37.894;2023-10-13T11:13:43;6.15;;;2.13;;
67516;SDS011;68821;59.134;37.894;2023-10-13T11:18:59;7.45;;;2.22;;
67516;SDS011;68821;59.134;37.894;2023-10-13T11:21:31;10.25;;;2.47;;
67516;SDS011;68821;59.134;37.894;2023-10-13T11:23:57;7.95;;;2.17;;
67516;SDS011;68821;59.134;37.894;2023-10-13T11:26:36;8.85;;;2.47;;
67516;SDS011;68821;59.134;37.894;2023-10-13T11:29:18;8.68;;;2.50;;
67516;SDS011;68821;59.134;37.894;2023-10-13T11:31:48;10.52;;;2.45;;
67516;SDS011;68821;59.134;37.894;2023-10-13T11:34:23;10.10;;;2.85;;
67516;SDS011;68821;59.134;37.894;2023-10-13T11:36:49;10.13;;;2.90;;
67516;SDS011;68821;59.134;37.894;2023-10-13T11:39:15;12.45;;;3.22;;
67516;SDS011;68821;59.134;37.894;2023-10-13T11:41:55;7.45;;;2.50;;
67516;SDS011;68821;59.134;37.894;2023-10-13T11:44:22;14.88;;;3.25;;
67516;SDS011;68821;59.134;37.894;2023-10-13T11:46:49;21.52;;;6.38;;
67516;SDS011;68821;59.134;37.894;2023-10-13T11:49:21;6.40;;;1.90;;
67516;SDS011;68821;59.134;37.894;2023-10-13T11:51:54;5.63;;;1.50;;
67516;SDS011;68821;59.134;37.894;2023-10-13T11:54:38;6.38;;;2.03;;
67516;SDS011;68821;59.134;37.894;2023-10-13T11:57:07;13.23;;;3.63;;
67516;SDS011;68821;59.134;37.894;2023-10-13T11:59:33;8.07;;;2.40;;
67516;SDS011;68821;59.134;37.894;2023-10-13T12:02:06;7.47;;;2.08;;
67516;SDS011;68821;59.134;37.894;2023-10-13T12:04:50;8.00;;;2.42;;
67516;SDS011;68821;59.134;37.894;2023-10-13T12:07:37;8.68;;;1.85;;
67516;SDS011;68821;59.134;37.894;2023-10-13T12:10:13;8.43;;;2.10;;
67516;SDS011;68821;59.134;37.894;2023-10-13T12:12:59;4.90;;;1.40;;
67516;SDS011;68821;59.134;37.894;2023-10-13T12:15:34;4.32;;;1.23;;
67516;SDS011;68821;59.134;37.894;2023-10-13T12:18:14;13.27;;;3.28;;
67516;SDS011;68821;59.134;37.894;2023-10-13T12:20:40;10.18;;;2.60;;
67516;SDS011;68821;59.134;37.894;2023-10-13T12:23:12;7.75;;;1.52;;
67516;SDS011;68821;59.134;37.894;2023-10-13T12:25:42;7.50;;;2.63;;
67516;SDS011;68821;59.134;37.894;2023-10-13T12:28:25;8.52;;;2.22;;
67516;SDS011;68821;59.134;37.894;2023-10-13T12:30:55;11.05;;;3.00;;
67516;SDS011;68821;59.134;37.894;2023-10-13T12:33:23;8.90;;;2.35;;
67516;SDS011;68821;59.134;37.894;2023-10-13T12:35:55;14.73;;;4.03;;
67516;SDS011;68821;59.134;37.894;2023-10-13T12:38:39;21.45;;;5.05;;
67516;SDS011;68821;59.134;37.894;2023-10-13T12:41:14;10.98;;;3.35;;
67516;SDS011;68821;59.134;37.894;2023-10-13T12:43:59;9.10;;;2.40;;
67516;SDS011;68821;59.134;37.894;2023-10-13T12:46:44;9.05;;;2.33;;
67516;SDS011;68821;59.134;37.894;2023-10-13T12:49:28;15.40;;;3.38;;
67516;SDS011;68821;59.134;37.894;2023-10-13T12:52:13;9.88;;;2.10;;
67516;SDS011;68821;59.134;37.894;2023-10-13T12:54:46;7.68;;;1.85;;
67516;SDS011;68821;59.134;37.894;2023-10-13T12:57:20;9.98;;;2.85;;
67516;SDS011;68821;59.134;37.894;2023-10-13T12:59:48;22.75;;;7.30;;
67516;SDS011;68821;59.134;37.894;2023-10-13T13:02:15;20.70;;;5.55;;
67516;SDS011;68821;59.134;37.894;2023-10-13T13:04:41;14.88;;;4.93;;
67516;SDS011;68821;59.134;37.894;2023-10-13T13:07:11;5.35;;;1.92;;
67516;SDS011;68821;59.134;37.894;2023-10-13T13:09:39;8.20;;;1.70;;
67516;SDS011;68821;59.134;37.894;2023-10-13T13:12:06;10.90;;;1.70;;
67516;SDS011;68821;59.134;37.894;2023-10-13T13:14:32;5.30;;;1.42;;
67516;SDS011;68821;59.134;37.894;2023-10-13T13:17:01;7.25;;;1.30;;
67516;SDS011;68821;59.134;37.894;2023-10-13T13:19:31;4.72;;;1.20;;
67516;SDS011;68821;59.134;37.894;2023-10-13T13:22:02;8.25;;;1.98;;
67516;SDS011;68821;59.134;37.894;2023-10-13T13:24:29;11.57;;;3.58;;
67516;SDS011;68821;59.134;37.894;2023-10-13T13:26:55;14.48;;;4.30;;
67516;SDS011;68821;59.134;37.894;2023-10-13T13:29:22;9.57;;;3.60;;
67516;SDS011;68821;59.134;37.894;2023-10-13T13:31:48;11.88;;;3.05;;
67516;SDS011;68821;59.134;37.894;2023-10-13T13:34:14;9.98;;;3.15;;
67516;SDS011;68821;59.134;37.894;2023-10-13T13:36:41;6.15;;;1.52;;
67516;SDS011;68821;59.134;37.894;2023-10-13T13:39:14;5.28;;;1.33;;
67516;SDS011;68821;59.134;37.894;2023-10-13T13:41:44;10.02;;;2.40;;
67516;SDS011;68821;59.134;37.894;2023-10-13T13:44:10;7.78;;;1.60;;
67516;SDS011;68821;59.134;37.894;2023-10-13T13:46:39;4.85;;;1.25;;
67516;SDS011;68821;59.134;37.894;2023-10-13T13:49:08;17.23;;;3.03;;
67516;SDS011;68821;59.134;37.894;2023-10-13T13:51:44;12.20;;;2.22;;
67516;SDS011;68821;59.134;37.894;2023-10-13T13:54:17;10.38;;;2.85;;
67516;SDS011;68821;59.134;37.894;2023-10-13T13:56:45;13.40;;;2.13;;
67516;SDS011;68821;59.134;37.894;2023-10-13T13:59:11;16.08;;;2.50;;
67516;SDS011;68821;59.134;37.894;2023-10-13T14:01:43;5.03;;;1.35;;
67516;SDS011;68821;59.134;37.894;2023-10-13T14:04:10;3.28;;;1.05;;
67516;SDS011;68821;59.134;37.894;2023-10-13T14:06:36;9.82;;;2.10;;
67516;SDS011;68821;59.134;37.894;2023-10-13T14:09:03;7.75;;;1.83;;
67516;SDS011;68821;59.134;37.894;2023-10-13T14:11:40;9.57;;;1.63;;
67516;SDS011;68821;59.134;37.894;2023-10-13T14:16:39;13.70;;;2.83;;
67516;SDS011;68821;59.134;37.894;2023-10-13T14:19:13;15.73;;;3.13;;
67516;SDS011;68821;59.134;37.894;2023-10-13T14:21:45;12.98;;;2.60;;
67516;SDS011;68821;59.134;37.894;2023-10-13T14:24:19;10.65;;;2.90;;
67516;SDS011;68821;59.134;37.894;2023-10-13T14:26:59;15.32;;;3.17;;
67516;SDS011;68821;59.134;37.894;2023-10-13T14:29:43;15.43;;;3.08;;
67516;SDS011;68821;59.134;37.894;2023-10-13T14:32:10;10.45;;;2.60;;
67516;SDS011;68821;59.134;37.894;2023-10-13T14:34:44;16.25;;;3.15;;
67516;SDS011;68821;59.134;37.894;2023-10-13T14:37:14;12.07;;;2.38;;
67516;SDS011;68821;59.134;37.894;2023-10-13T14:39:55;10.73;;;2.33;;
67516;SDS011;68821;59.134;37.894;2023-10-13T14:42:25;10.07;;;2.42;;
67516;SDS011;68821;59.134;37.894;2023-10-13T14:44:52;10.65;;;1.88;;
67516;SDS011;68821;59.134;37.894;2023-10-13T14:47:22;10.80;;;1.85;;
67516;SDS011;68821;59.134;37.894;2023-10-13T14:49:54;9.77;;;2.40;;
67516;SDS011;68821;59.134;37.894;2023-10-13T14:52:21;8.20;;;1.55;;
67516;SDS011;68821;59.134;37.894;2023-10-13T14:54:48;19.80;;;2.92;;
67516;SDS011;68821;59.134;37.894;2023-10-13T14:57:21;8.88;;;2.13;;
67516;SDS011;68821;59.134;37.894;2023-10-13T14:59:54;11.48;;;3.30;;
67516;SDS011;68821;59.134;37.894;2023-10-13T15:02:20;11.95;;;2.35;;
67516;SDS011;68821;59.134;37.894;2023-10-13T15:04:47;7.55;;;2.10;;
67516;SDS011;68821;59.134;37.894;2023-10-13T15:07:16;8.95;;;2.38;;
67516;SDS011;68821;59.134;37.894;2023-10-13T15:09:44;15.38;;;2.40;;
67516;SDS011;68821;59.134;37.894;2023-10-13T15:12:10;9.85;;;2.75;;
67516;SDS011;68821;59.134;37.894;2023-10-13T15:14:39;8.85;;;2.03;;
67516;SDS011;68821;59.134;37.894;2023-10-13T15:17:08;7.93;;;1.75;;
67516;SDS011;68821;59.134;37.894;2023-10-13T15:19:35;7.35;;;1.58;;
67516;SDS011;68821;59.134;37.894;2023-10-13T15:22:04;8.30;;;1.65;;
67516;SDS011;68821;59.134;37.894;2023-10-13T15:24:38;7.65;;;2.15;;
67516;SDS011;68821;59.134;37.894;2023-10-13T15:27:11;7.05;;;1.63;;
67516;SDS011;68821;59.134;37.894;2023-10-13T15:29:37;5.75;;;1.33;;
67516;SDS011;68821;59.134;37.894;2023-10-13T15:32:03;6.80;;;1.30;;
67516;SDS011;68821;59.134;37.894;2023-10-13T15:34:51;7.22;;;1.40;;
67516;SDS011;68821;59.134;37.894;2023-10-13T15:37:18;8.30;;;1.67;;
67516;SDS011;68821;59.134;37.894;2023-10-13T15:39:45;9.25;;;1.92;;
67516;SDS011;68821;59.134;37.894;2023-10-13T15:42:11;12.85;;;1.50;;
67516;SDS011;68821;59.134;37.894;2023-10-13T15:44:39;8.77;;;1.40;;
67516;SDS011;68821;59.134;37.894;2023-10-13T15:47:08;13.25;;;1.13;;
67516;SDS011;68821;59.134;37.894;2023-10-13T15:49:37;17.00;;;1.45;;
67516;SDS011;68821;59.134;37.894;2023-10-13T15:52:08;16.52;;;2.10;;
67516;SDS011;68821;59.134;37.894;2023-10-13T15:54:37;12.80;;;1.65;;
67516;SDS011;68821;59.134;37.894;2023-10-13T15:57:03;7.82;;;1.70;;
67516;SDS011;68821;59.134;37.894;2023-10-13T15:59:32;10.93;;;1.95;;
67516;SDS011;68821;59.134;37.894;2023-10-13T16:02:00;21.60;;;3.22;;
67516;SDS011;68821;59.134;37.894;2023-10-13T16:04:26;9.68;;;2.53;;